Data for 04/21/2016

Time Sea-Level Adjusted Pressure Absolute Pressure Temperature Relative Humidity Dew Point   
(mb) (inHg) (mb) (inHg) (C) (F) (%) (C) (F)
00:05 1020 30.12 849 25.07 11.7 53 55 2.9 37.3
00:10 1020 30.12 849 25.07 11.6 52.9 55 3 37.4
00:15 1020 30.12 849 25.07 11.6 52.8 55 2.9 37.3
00:20 1020 30.12 849 25.07 11.6 52.8 55 2.9 37.2
00:25 1020 30.12 849 25.07 11.5 52.7 55 2.8 37.1
00:30 1020 30.12 849 25.07 11.5 52.7 55 2.8 37.1
00:35 1020 30.12 849 25.07 11.4 52.5 55 2.8 37
00:40 1020 30.12 849 25.07 11.4 52.6 55 2.8 37
00:45 1020 30.12 849 25.07 11.4 52.5 55 2.8 37
00:50 1020 30.12 849 25.07 11.4 52.5 55 2.7 36.8
00:55 1020 30.12 849 25.07 11.3 52.4 55 2.8 37
01:00 1020 30.12 849 25.07 11.2 52.2 55 2.6 36.8
01:05 1020 30.12 849 25.07 11.2 52.2 55 2.7 36.8
01:10 1020 30.12 849 25.07 11.3 52.3 55 2.6 36.6
01:15 1020 30.12 849 25.07 11.2 52.2 55 2.6 36.6
01:20 1020 30.12 849 25.07 11.2 52.1 54 2.4 36.2
01:25 1020 30.12 849 25.07 11.2 52.2 55 2.5 36.5
01:30 1020 30.12 849 25.07 11.1 51.9 55 2.4 36.3
01:35 1020 30.12 849 25.07 11.2 52.1 54 2.3 36.1
01:40 1020 30.12 849 25.07 11.2 52.1 54 2.2 35.9
01:45 1020 30.12 849 25.07 11.2 52.1 54 2.3 36.1
01:50 1020 30.12 849 25.07 11.1 52.1 54 2.2 35.9
01:55 1020 30.12 849 25.07 11.2 52.2 53 2.2 35.9
02:00 1020 30.12 849 25.07 11.2 52.2 52 1.9 35.4
02:05 1020 30.12 849 25.07 11.3 52.4 52 1.9 35.5
02:10 1020 30.12 849 25.07 11.4 52.5 52 1.8 35.3
02:15 1020 30.12 849 25.07 11.5 52.6 51 1.8 35.3
02:20 1020 30.12 849 25.07 11.4 52.6 51 1.8 35.2
02:25 1020 30.12 849 25.07 11.4 52.5 51 1.8 35.2
02:30 1020 30.12 849 25.07 11.5 52.6 51 1.7 35
02:35 1020 30.12 849 25.07 11.5 52.7 50 1.4 34.5
02:40 1020 30.12 849 25.07 11.7 53 49 1.5 34.6
02:45 1020 30.12 849 25.07 11.7 53.1 49 1.5 34.8
02:50 1020 30.12 849 25.07 11.5 52.7 51 1.8 35.2
02:55 1020 30.12 849 25.07 11.2 52.1 52 1.8 35.2
03:00 1020 30.12 849 25.07 11 51.9 52 1.7 35.1
03:05 1020 30.12 849 25.07 11 51.8 53 1.7 35.1
03:10 1020 30.12 849 25.07 11 51.8 53 1.7 35.1
03:15 1019 30.09 849 25.07 11 51.7 53 1.8 35.3
03:20 1019 30.09 849 25.07 10.8 51.4 54 1.9 35.4
03:25 1019 30.09 849 25.07 10.6 51.1 55 1.9 35.4
03:30 1020 30.12 849 25.07 10.4 50.8 55 1.8 35.3
03:35 1020 30.12 849 25.07 10.4 50.8 55 1.9 35.3
03:40 1020 30.12 849 25.07 10.5 50.9 54 1.7 35
03:45 1020 30.12 849 25.07 10.7 51.3 53 1.7 35
03:50 1020 30.12 849 25.07 10.7 51.3 53 1.6 35
03:55 1020 30.12 849 25.07 10.6 51.1 54 1.7 35
04:00 1020 30.12 849 25.07 10.6 51.1 53 1.5 34.8
04:05 1020 30.12 849 25.07 10.6 51.1 54 1.7 35
04:10 1020 30.12 849 25.07 10.4 50.8 54 1.6 34.9
04:15 1020 30.12 849 25.07 10.2 50.3 55 1.7 35.1
04:20 1020 30.12 849 25.07 9.9 49.9 56 1.7 35
04:25 1020 30.12 849 25.07 9.8 49.6 57 1.7 35
04:30 1020 30.12 849 25.07 9.7 49.4 56 1.4 34.4
04:35 1020 30.12 849 25.07 9.8 49.6 56 1.4 34.4
04:40 1020 30.12 849 25.07 9.9 49.8 55 1.3 34.3
04:45 1020 30.12 849 25.07 9.8 49.6 55 1.2 34.1
04:50 1020 30.12 849 25.07 9.7 49.4 55 1.2 34.2
04:55 1020 30.12 849 25.07 9.6 49.3 55 1.1 33.9
05:00 1020 30.12 849 25.07 9.5 49.2 55 0.9 33.7
05:05 1020 30.12 849 25.07 9.5 49 55 0.9 33.7
05:10 1020 30.12 849 25.07 9.4 49 54 0.7 33.2
05:15 1020 30.12 849 25.07 9.5 49 54 0.7 33.2
05:20 1020 30.12 849 25.07 9.2 48.5 56 0.9 33.7
05:25 1020 30.12 849 25.07 8.8 47.8 56 0.4 32.8
05:30 1020 30.12 849 25.07 8.9 47.9 55 0.3 32.6
05:35 1020 30.12 849 25.07 8.8 47.8 54 0 32
05:40 1020 30.12 849 25.07 8.9 48 53 -0.2 31.7
05:45 1020 30.12 849 25.07 9 48.2 52 -0.2 31.6
05:50 1020 30.12 849 25.07 9.1 48.3 51 -0.4 31.3
05:55 1020 30.12 849 25.07 9.1 48.4 52 -0.2 31.6
06:00 1020 30.12 849 25.07 9 48.2 52 -0.4 31.3
06:05 1020 30.12 849 25.07 9 48.2 51 -0.5 31
06:10 1020 30.12 849 25.07 9.1 48.3 51 -0.6 31
06:15 1020 30.12 849 25.07 9.1 48.4 51 -0.6 30.9
06:20 1020 30.12 849 25.07 9.2 48.5 50 -0.6 30.9
06:25 1020 30.12 849 25.07 9.3 48.8 49 -0.7 30.8
06:30 1020 30.12 849 25.07 9.6 49.2 48 -0.8 30.6
06:35 1020 30.12 849 25.07 9.8 49.7 47 -0.9 30.3
06:40 1020 30.12 849 25.07 10.1 50.1 47 -0.8 30.6
06:45 1020 30.12 849 25.07 10.4 50.7 46 -0.7 30.8
06:50 1020 30.12 849 25.07 10.9 51.5 44 -0.9 30.4
06:55 1020 30.12 849 25.07 10.9 51.6 44 -0.9 30.4
07:00 1020 30.12 849 25.07 11.2 52.1 43 -1 30.2
07:05 1020 30.12 849 25.07 11.3 52.3 43 -0.9 30.4
07:10 1020 30.12 849 25.07 11.5 52.7 42 -1 30.3
07:15 1020 30.12 849 25.07 11.9 53.3 41 -0.9 30.4
07:20 1020 30.12 849 25.07 11.9 53.3 42 -0.6 30.9
07:25 1020 30.12 849 25.07 12.1 53.7 41 -0.8 30.6
07:30 1020 30.12 849 25.07 12.2 54 40 -1 30.1
07:35 1020 30.12 849 25.07 12.5 54.4 39 -0.9 30.3
07:40 1020 30.12 849 25.07 12.8 55 37 -1.4 29.4
07:45 1020 30.12 849 25.07 13.3 55.9 40 -0.1 31.8
07:50 1020 30.12 849 25.07 13.6 56.4 40 0.1 32.2
07:55 1020 30.12 849 25.07 13.9 57 43 1.6 34.9
08:00 1020 30.12 849 25.07 13.6 56.5 42 1.1 34
08:05 1020 30.12 849 25.07 13.8 56.8 43 1.4 34.6
08:10 1020 30.12 849 25.07 14 57.2 40 0.6 33.1
08:15 1020 30.12 849 25.07 14.9 58.7 33 -1.2 29.8
08:20 1020 30.12 849 25.07 14.5 58.2 34 -1.1 30.1
08:25 1020 30.12 849 25.07 14.6 58.3 32 -1.6 29
08:30 1020 30.12 849 25.07 14.4 57.8 34 -1.3 29.7
08:35 1020 30.12 849 25.07 14.6 58.2 32 -1.9 28.5
08:40 1020 30.12 849 25.07 14.9 58.9 31 -2 28.4
08:45 1020 30.12 849 25.07 15.1 59.2 31 -1.9 28.6
08:50 1020 30.12 849 25.07 15.6 60 30 -1.9 28.6
08:55 1019 30.09 849 25.07 15.6 60.1 30 -1.7 29
09:00 1019 30.09 849 25.07 15.8 60.4 28 -2.5 27.5
09:05 1019 30.09 849 25.07 16 60.7 33 -0.3 31.5
09:10 1019 30.09 849 25.07 16.4 61.6 39 2.5 36.4
09:15 1019 30.09 848 25.04 15.8 60.5 37 1.4 34.5
09:20 1019 30.09 848 25.04 16.2 61.1 38 2 35.5
09:25 1019 30.09 848 25.04 16.9 62.5 36 2 35.5
09:30 1019 30.09 848 25.04 16.2 61.1 39 2.2 35.9
09:35 1019 30.09 848 25.04 17.1 62.9 36 2 35.6
09:40 1019 30.09 848 25.04 17.4 63.4 34 1.6 34.9
09:45 1019 30.09 848 25.04 17.5 63.4 35 2 35.6
09:50 1019 30.09 848 25.04 17.9 64.1 33 1.6 34.8
09:55 1019 30.09 848 25.04 17.2 63 35 1.6 34.9
10:00 1019 30.09 848 25.04 17.2 63 36 2.1 35.8
10:05 1019 30.09 848 25.04 17.2 62.9 38 2.7 36.9
10:10 1019 30.09 848 25.04 17.2 62.9 37 2.3 36.1
10:15 1019 30.09 848 25.04 18.1 64.5 33 1.7 35
10:20 1019 30.09 848 25.04 18 64.3 34 1.9 35.5
10:25 1019 30.09 848 25.04 18.6 65.5 32 1.6 34.8
10:30 1019 30.09 848 25.04 19.2 66.5 31 2 35.5
10:35 1019 30.09 848 25.04 19.2 66.5 32 2.3 36.1
10:40 1019 30.09 848 25.04 18.4 65.1 33 1.9 35.4
10:45 1019 30.09 848 25.04 18.7 65.7 31 1.4 34.5
10:50 1019 30.09 848 25.04 19 66.2 31 1.7 35.1
10:55 1019 30.09 848 25.04 19.7 67.4 31 2.2 35.9
11:00 1019 30.09 848 25.04 19.3 66.7 31 1.8 35.3
11:05 1018 30.06 848 25.04 19.6 67.3 30 1.9 35.5
11:10 1018 30.06 848 25.04 19.7 67.4 30 1.8 35.2
11:15 1018 30.06 847 25.01 20 68.1 31 2.4 36.2
11:20 1018 30.06 847 25.01 20.2 68.4 29 1.8 35.2
11:25 1018 30.06 847 25.01 20.8 69.5 28 1.9 35.4
11:30 1018 30.06 847 25.01 20.2 68.4 31 2.6 36.7
11:35 1018 30.06 847 25.01 20.6 69.1 29 2.1 35.7
11:40 1018 30.06 847 25.01 19.9 67.8 29 1.7 35
11:45 1018 30.06 847 25.01 21.1 70 27 1.6 34.9
11:50 1018 30.06 847 25.01 21.1 69.9 28 1.8 35.2
11:55 1018 30.06 847 25.01 20.6 69 27 1.3 34.4
12:00 1018 30.06 847 25.01 20.4 68.7 28 1.5 34.7
12:05 1018 30.06 847 25.01 20.9 69.6 27 1.4 34.5
12:10 1017 30.03 847 25.01 21.1 70 25 0.7 33.2
12:15 1017 30.03 847 25.01 21.8 71.2 24 0.3 32.5
12:20 1017 30.03 846 24.98 22 71.6 25 1 33.8
12:25 1017 30.03 846 24.98 21.5 70.8 26 1.3 34.4
12:30 1017 30.03 846 24.98 21.6 70.9 23 -0.1 31.8
12:35 1017 30.03 846 24.98 22.3 72.1 21 -0.6 30.9
12:40 1017 30.03 846 24.98 22.4 72.3 21 -0.6 30.9
12:45 1017 30.03 846 24.98 22.8 73.1 18 -2.4 27.7
12:50 1017 30.03 846 24.98 23.2 73.7 17 -3.3 26.1
12:55 1017 30.03 846 24.98 22.5 72.6 19 -2.2 28
13:00 1017 30.03 846 24.98 22.5 72.4 19 -2.5 27.6
13:05 1017 30.03 846 24.98 22.8 73 17 -3 26.6
13:10 1017 30.03 846 24.98 23.1 73.7 18 -2.4 27.7
13:15 1017 30.03 846 24.98 23.3 73.9 17 -2.6 27.3
13:20 1017 30.03 846 24.98 22.2 72 19 -2.7 27.2
13:25 1016 30 846 24.98 22.4 72.3 17 -3.3 26.1
13:30 1016 30 846 24.98 22.8 73 18 -2.9 26.8
13:35 1016 30 846 24.98 22.6 72.8 16 -4 24.8
13:40 1016 30 846 24.98 23.2 73.8 16 -4.2 24.5
13:45 1016 30 845 24.95 24.4 75.8 15 -3.8 25.1
13:50 1016 30 845 24.95 24.5 76.1 15 -3.5 25.7
13:55 1016 30 845 24.95 23.8 74.8 15 -3.9 24.9
14:00 1016 30 845 24.95 23.9 75.1 15 -4.1 24.6
14:05 1016 30 845 24.95 24.2 75.6 15 -3.9 24.9
14:10 1016 30 845 24.95 24.2 75.5 15 -3.7 25.3
14:15 1016 30 845 24.95 24.4 75.9 15 -3.9 25
14:20 1016 30 845 24.95 24.9 76.8 15 -3.4 25.8
14:25 1016 30 845 24.95 24.6 76.2 15 -3.6 25.5
14:30 1016 30 845 24.95 24.3 75.8 17 -2.2 28
14:35 1016 30 845 24.95 24.2 75.6 15 -4 24.7
14:40 1016 30 845 24.95 24.6 76.3 16 -3.1 26.5
14:45 1015 29.97 845 24.95 23.2 73.7 17 -2.7 27.2
14:50 1015 29.97 845 24.95 23.1 73.6 17 -3.2 26.3
14:55 1015 29.97 845 24.95 23.5 74.2 16 -3.9 24.9
15:00 1015 29.97 844 24.92 24.1 75.4 16 -3.4 26
15:05 1015 29.97 844 24.92 24.1 75.3 16 -2.8 27
15:10 1015 29.97 844 24.92 23.5 74.3 17 -2.9 26.8
15:15 1015 29.97 844 24.92 24.2 75.5 16 -3.3 26
15:20 1015 29.97 844 24.92 24.7 76.5 16 -2.7 27.1
15:25 1015 29.97 844 24.92 24.4 75.9 15 -3.5 25.7
15:30 1015 29.97 844 24.92 25.1 77.1 14 -3.6 25.5
15:35 1015 29.97 844 24.92 25.4 77.6 15 -2.8 26.9
15:40 1015 29.97 844 24.92 25.5 77.8 15 -2.9 26.7
15:45 1015 29.97 844 24.92 25.9 78.5 15 -2.9 26.7
15:50 1015 29.97 844 24.92 25.5 77.9 15 -3 26.7
15:55 1015 29.97 844 24.92 25.3 77.6 15 -3.1 26.3
16:00 1015 29.97 844 24.92 25 77.1 14 -3.8 25.2
16:05 1015 29.97 844 24.92 25.1 77.2 15 -3.1 26.5
16:10 1015 29.97 844 24.92 24.8 76.6 15 -3.6 25.4
16:15 1015 29.97 844 24.92 24.4 75.9 14 -4.4 24.1
16:20 1015 29.97 844 24.92 24.5 76.1 14 -4.5 23.9
16:25 1015 29.97 844 24.92 24.4 75.8 14 -5 22.9
16:30 1015 29.97 844 24.92 24.6 76.4 13 -5.1 22.8
16:35 1015 29.97 844 24.92 24.9 76.8 13 -5.1 22.8
16:40 1015 29.97 844 24.92 24.9 76.8 13 -5 22.9
16:45 1015 29.97 844 24.92 24.6 76.4 13 -5.3 22.5
16:50 1015 29.97 844 24.92 25 77 13 -4.7 23.6
16:55 1015 29.97 844 24.92 25 77 14 -4.5 23.9
17:00 1015 29.97 844 24.92 24.8 76.6 14 -4.5 23.9
17:05 1015 29.97 844 24.92 24 75.2 15 -3.9 24.9
17:10 1015 29.97 844 24.92 23.5 74.4 16 -3.8 25.1
17:15 1015 29.97 844 24.92 23.4 74.1 15 -4.1 24.6
17:20 1015 29.97 844 24.92 23.2 73.7 16 -4 24.8
17:25 1015 29.97 844 24.92 22.9 73.2 18 -2.8 27
17:30 1015 29.97 844 24.92 22.6 72.8 18 -3 26.5
17:35 1015 29.97 844 24.92 22.3 72.1 19 -2.6 27.3
17:40 1015 29.97 844 24.92 22.2 71.9 18 -2.9 26.7
17:45 1014 29.94 844 24.92 22.1 71.7 18 -3.4 25.8
17:50 1014 29.94 844 24.92 22 71.7 15 -5.3 22.4
17:55 1014 29.94 844 24.92 22.1 71.7 15 -5.8 21.5
18:00 1014 29.94 844 24.92 22.1 71.7 17 -4.2 24.4
18:05 1014 29.94 844 24.92 21.9 71.5 15 -5.4 22.2
18:10 1014 29.94 844 24.92 22 71.7 17 -4.3 24.2
18:15 1014 29.94 843 24.89 22.1 71.7 14 -6.1 21
18:20 1014 29.94 843 24.89 22.1 71.7 15 -5.2 22.6
18:25 1014 29.94 843 24.89 22 71.5 16 -4.7 23.5
18:30 1014 29.94 843 24.89 21.8 71.2 15 -5.8 21.5
18:35 1014 29.94 843 24.89 21.3 70.4 17 -4.8 23.3
18:40 1014 29.94 843 24.89 20.9 69.7 17 -5 23.1
18:45 1014 29.94 843 24.89 20.7 69.2 19 -3.6 25.6
18:50 1014 29.94 844 24.92 20.4 68.7 18 -4.4 24.1
18:55 1014 29.94 844 24.92 20.1 68.2 18 -4.5 24
19:00 1014 29.94 844 24.92 20.2 68.3 23 -1.7 28.9
19:05 1014 29.94 844 24.92 20 68.1 24 -0.8 30.5
19:10 1014 29.94 843 24.89 19.8 67.6 25 -0.5 31
19:15 1014 29.94 843 24.89 19.6 67.2 26 -0.4 31.2
19:20 1014 29.94 844 24.92 19.4 66.9 26 -0.2 31.6
19:25 1014 29.94 844 24.92 19.2 66.5 27 -0.1 31.8
19:30 1014 29.94 844 24.92 18.9 66 28 0.1 32.2
19:35 1014 29.94 844 24.92 18.6 65.4 28 0.1 32.1
19:40 1014 29.94 844 24.92 18.4 65.1 29 0 32.1
19:45 1015 29.97 844 24.92 18.2 64.8 30 0.3 32.6
19:50 1015 29.97 844 24.92 17.9 64.2 30 0.1 32.2
19:55 1015 29.97 844 24.92 17.7 63.9 30 0.3 32.5
20:00 1015 29.97 844 24.92 17.4 63.3 31 0.4 32.7
20:05 1015 29.97 844 24.92 17.1 62.7 32 0.4 32.8
20:10 1015 29.97 844 24.92 16.9 62.4 32 0.3 32.6
20:15 1015 29.97 844 24.92 16.9 62.4 32 0.3 32.5
20:20 1015 29.97 844 24.92 16.9 62.4 32 0.2 32.3
20:25 1015 29.97 844 24.92 16.8 62.3 32 0.3 32.5
20:30 1015 29.97 844 24.92 16.7 62 33 0.3 32.5
20:35 1015 29.97 844 24.92 16.5 61.8 33 0.3 32.5
20:40 1015 29.97 844 24.92 16.5 61.6 33 0.2 32.3
20:45 1015 29.97 844 24.92 16.4 61.5 33 0.2 32.3
20:50 1015 29.97 844 24.92 16.3 61.3 33 0.2 32.4
20:55 1015 29.97 844 24.92 16.1 60.9 34 0.3 32.5
21:00 1015 29.97 844 24.92 15.8 60.4 35 0.5 32.9
21:05 1015 29.97 844 24.92 15.6 60.1 36 0.7 33.3
21:10 1015 29.97 844 24.92 15.3 59.6 37 0.9 33.6
21:15 1015 29.97 844 24.92 14.9 58.8 37 0.5 32.8
21:20 1015 29.97 844 24.92 14.8 58.7 37 0.5 32.9
21:25 1015 29.97 844 24.92 14.5 58 38 0.2 32.4
21:30 1015 29.97 844 24.92 14.1 57.4 38 0.2 32.4
21:35 1015 29.97 844 24.92 14.2 57.6 38 0.2 32.3
21:40 1015 29.97 844 24.92 14.5 58.1 38 0.6 33.1
21:45 1015 29.97 844 24.92 14.4 58 38 0.5 32.8
21:50 1015 29.97 844 24.92 14.4 58 39 0.6 33
21:55 1015 29.97 844 24.92 14.3 57.7 38 0.2 32.3
22:00 1015 29.97 844 24.92 14.5 58 39 0.6 33.1
22:05 1015 29.97 844 24.92 14.1 57.3 39 0.4 32.7
22:10 1015 29.97 844 24.92 13.9 56.9 39 0.4 32.7
22:15 1015 29.97 844 24.92 13.6 56.5 40 0.3 32.6
22:20 1015 29.97 844 24.92 13.4 56.2 40 0 32.1
22:25 1015 29.97 844 24.92 13.3 55.9 40 -0.1 31.8
22:30 1015 29.97 844 24.92 13.4 56.1 40 0 32
22:35 1015 29.97 844 24.92 13.4 56.1 39 -0.2 31.6
22:40 1014 29.94 844 24.92 13.4 56.1 38 -0.5 31.2
22:45 1014 29.94 844 24.92 13.5 56.4 39 -0.2 31.6
22:50 1014 29.94 844 24.92 13.5 56.3 39 -0.1 31.8
22:55 1014 29.94 844 24.92 13.6 56.4 39 0 32.1
23:00 1014 29.94 844 24.92 13.5 56.3 39 -0 31.9
23:05 1014 29.94 844 24.92 13.6 56.5 39 0.1 32.2
23:10 1014 29.94 844 24.92 13.7 56.6 38 -0.1 31.8
23:15 1014 29.94 844 24.92 13.9 57.1 38 -0.2 31.7
23:20 1014 29.94 843 24.89 14.2 57.5 35 -0.8 30.5
23:25 1014 29.94 843 24.89 14.6 58.2 38 0.4 32.7
23:30 1014 29.94 843 24.89 14.4 57.9 36 -0.3 31.5
23:35 1014 29.94 843 24.89 14.2 57.6 36 -0.4 31.3
23:40 1014 29.94 843 24.89 14.3 57.8 36 -0.5 31
23:45 1014 29.94 843 24.89 14.3 57.7 36 -0.4 31.3
23:50 1014 29.94 843 24.89 14.5 58.1 34 -1.1 30.1
23:55 1014 29.94 843 24.89 14.4 57.9 35 -0.6 30.9
24:00 1014 29.94 843 24.89 14.1 57.4 36 -0.8 30.5